sensor_id;sensor_type;location;lat;lon;timestamp;P1;durP1;ratioP1;P2;durP2;ratioP2
20170;SDS011;10245;51.344;6.620;2023-05-18T00:00:00;10.18;;;3.45;;
20170;SDS011;10245;51.344;6.620;2023-05-18T00:02:25;9.65;;;3.03;;
20170;SDS011;10245;51.344;6.620;2023-05-18T00:04:49;9.93;;;3.13;;
20170;SDS011;10245;51.344;6.620;2023-05-18T00:07:14;10.75;;;3.13;;
20170;SDS011;10245;51.344;6.620;2023-05-18T00:09:37;12.93;;;3.08;;
20170;SDS011;10245;51.344;6.620;2023-05-18T00:12:02;5.32;;;2.65;;
20170;SDS011;10245;51.344;6.620;2023-05-18T00:14:27;10.88;;;2.90;;
20170;SDS011;10245;51.344;6.620;2023-05-18T00:16:50;7.57;;;2.88;;
20170;SDS011;10245;51.344;6.620;2023-05-18T00:19:15;12.07;;;2.95;;
20170;SDS011;10245;51.344;6.620;2023-05-18T00:21:38;10.43;;;3.38;;
20170;SDS011;10245;51.344;6.620;2023-05-18T00:24:04;6.25;;;2.70;;
20170;SDS011;10245;51.344;6.620;2023-05-18T00:26:28;14.15;;;3.92;;
20170;SDS011;10245;51.344;6.620;2023-05-18T00:28:52;10.82;;;3.50;;
20170;SDS011;10245;51.344;6.620;2023-05-18T00:31:15;8.18;;;3.13;;
20170;SDS011;10245;51.344;6.620;2023-05-18T00:33:38;12.70;;;3.83;;
20170;SDS011;10245;51.344;6.620;2023-05-18T00:36:02;9.15;;;2.92;;
20170;SDS011;10245;51.344;6.620;2023-05-18T00:38:26;7.80;;;3.00;;
20170;SDS011;10245;51.344;6.620;2023-05-18T00:40:51;8.13;;;3.22;;
20170;SDS011;10245;51.344;6.620;2023-05-18T00:43:14;15.38;;;3.67;;
20170;SDS011;10245;51.344;6.620;2023-05-18T00:45:37;7.15;;;3.40;;
20170;SDS011;10245;51.344;6.620;2023-05-18T00:48:01;8.20;;;2.85;;
20170;SDS011;10245;51.344;6.620;2023-05-18T00:50:24;13.25;;;3.60;;
20170;SDS011;10245;51.344;6.620;2023-05-18T00:52:48;14.80;;;3.67;;
20170;SDS011;10245;51.344;6.620;2023-05-18T00:55:11;7.05;;;2.83;;
20170;SDS011;10245;51.344;6.620;2023-05-18T00:57:37;7.60;;;3.28;;
20170;SDS011;10245;51.344;6.620;2023-05-18T01:00:03;11.52;;;3.35;;
20170;SDS011;10245;51.344;6.620;2023-05-18T01:02:31;12.32;;;3.20;;
20170;SDS011;10245;51.344;6.620;2023-05-18T01:04:57;14.00;;;3.33;;
20170;SDS011;10245;51.344;6.620;2023-05-18T01:07:25;13.00;;;3.63;;
20170;SDS011;10245;51.344;6.620;2023-05-18T01:09:48;8.10;;;3.13;;
20170;SDS011;10245;51.344;6.620;2023-05-18T01:12:14;13.95;;;3.65;;
20170;SDS011;10245;51.344;6.620;2023-05-18T01:14:46;11.65;;;3.58;;
20170;SDS011;10245;51.344;6.620;2023-05-18T01:17:16;9.48;;;3.70;;
20170;SDS011;10245;51.344;6.620;2023-05-18T01:26:15;10.15;;;2.88;;
20170;SDS011;10245;51.344;6.620;2023-05-18T01:28:45;10.50;;;3.58;;
20170;SDS011;10245;51.344;6.620;2023-05-18T01:31:09;8.68;;;3.78;;
20170;SDS011;10245;51.344;6.620;2023-05-18T01:33:33;10.05;;;4.10;;
20170;SDS011;10245;51.344;6.620;2023-05-18T01:35:56;10.93;;;3.40;;
20170;SDS011;10245;51.344;6.620;2023-05-18T01:38:20;9.13;;;3.25;;
20170;SDS011;10245;51.344;6.620;2023-05-18T01:40:47;14.38;;;3.40;;
20170;SDS011;10245;51.344;6.620;2023-05-18T01:43:22;8.10;;;3.40;;
20170;SDS011;10245;51.344;6.620;2023-05-18T01:45:53;11.00;;;3.30;;
20170;SDS011;10245;51.344;6.620;2023-05-18T01:48:20;10.63;;;3.30;;
20170;SDS011;10245;51.344;6.620;2023-05-18T01:50:47;7.43;;;3.13;;
20170;SDS011;10245;51.344;6.620;2023-05-18T01:53:18;11.73;;;3.78;;
20170;SDS011;10245;51.344;6.620;2023-05-18T01:55:46;9.88;;;3.78;;
20170;SDS011;10245;51.344;6.620;2023-05-18T01:58:12;12.40;;;3.70;;
20170;SDS011;10245;51.344;6.620;2023-05-18T02:00:37;8.27;;;3.55;;
20170;SDS011;10245;51.344;6.620;2023-05-18T02:03:01;9.25;;;3.60;;
20170;SDS011;10245;51.344;6.620;2023-05-18T02:05:25;10.02;;;3.42;;
20170;SDS011;10245;51.344;6.620;2023-05-18T02:07:49;11.30;;;3.67;;
20170;SDS011;10245;51.344;6.620;2023-05-18T02:10:12;7.70;;;3.55;;
20170;SDS011;10245;51.344;6.620;2023-05-18T02:12:36;9.35;;;3.40;;
20170;SDS011;10245;51.344;6.620;2023-05-18T02:14:59;11.02;;;3.85;;
20170;SDS011;10245;51.344;6.620;2023-05-18T02:17:27;11.88;;;4.00;;
20170;SDS011;10245;51.344;6.620;2023-05-18T02:19:50;8.73;;;4.03;;
20170;SDS011;10245;51.344;6.620;2023-05-18T02:22:15;12.70;;;3.67;;
20170;SDS011;10245;51.344;6.620;2023-05-18T02:24:39;11.57;;;4.10;;
20170;SDS011;10245;51.344;6.620;2023-05-18T02:27:04;9.23;;;3.80;;
20170;SDS011;10245;51.344;6.620;2023-05-18T02:29:27;10.82;;;3.75;;
20170;SDS011;10245;51.344;6.620;2023-05-18T02:31:51;9.73;;;3.58;;
20170;SDS011;10245;51.344;6.620;2023-05-18T02:34:15;10.48;;;3.83;;
20170;SDS011;10245;51.344;6.620;2023-05-18T02:36:40;11.05;;;4.00;;
20170;SDS011;10245;51.344;6.620;2023-05-18T02:39:03;7.63;;;3.40;;
20170;SDS011;10245;51.344;6.620;2023-05-18T02:41:27;11.70;;;3.92;;
20170;SDS011;10245;51.344;6.620;2023-05-18T02:43:51;11.68;;;4.18;;
20170;SDS011;10245;51.344;6.620;2023-05-18T02:46:14;13.18;;;4.20;;
20170;SDS011;10245;51.344;6.620;2023-05-18T02:48:38;12.63;;;3.90;;
20170;SDS011;10245;51.344;6.620;2023-05-18T02:51:07;10.93;;;3.88;;
20170;SDS011;10245;51.344;6.620;2023-05-18T02:53:30;9.27;;;4.10;;
20170;SDS011;10245;51.344;6.620;2023-05-18T02:56:00;11.80;;;4.38;;
20170;SDS011;10245;51.344;6.620;2023-05-18T02:58:36;7.65;;;3.85;;
20170;SDS011;10245;51.344;6.620;2023-05-18T03:01:04;14.00;;;4.78;;
20170;SDS011;10245;51.344;6.620;2023-05-18T03:03:34;14.85;;;4.45;;
20170;SDS011;10245;51.344;6.620;2023-05-18T03:05:57;12.55;;;5.00;;
20170;SDS011;10245;51.344;6.620;2023-05-18T03:08:22;14.70;;;5.43;;
20170;SDS011;10245;51.344;6.620;2023-05-18T03:10:47;12.27;;;4.88;;
20170;SDS011;10245;51.344;6.620;2023-05-18T03:13:11;12.90;;;4.88;;
20170;SDS011;10245;51.344;6.620;2023-05-18T03:15:34;12.82;;;5.15;;
20170;SDS011;10245;51.344;6.620;2023-05-18T03:18:00;12.75;;;4.68;;
20170;SDS011;10245;51.344;6.620;2023-05-18T03:20:23;12.77;;;5.82;;
20170;SDS011;10245;51.344;6.620;2023-05-18T03:22:47;12.10;;;5.00;;
20170;SDS011;10245;51.344;6.620;2023-05-18T03:25:12;13.50;;;5.70;;
20170;SDS011;10245;51.344;6.620;2023-05-18T03:27:35;12.00;;;4.72;;
20170;SDS011;10245;51.344;6.620;2023-05-18T03:29:59;13.32;;;5.43;;
20170;SDS011;10245;51.344;6.620;2023-05-18T03:32:23;11.20;;;5.20;;
20170;SDS011;10245;51.344;6.620;2023-05-18T03:34:48;14.15;;;5.07;;
20170;SDS011;10245;51.344;6.620;2023-05-18T03:37:15;10.20;;;4.80;;
20170;SDS011;10245;51.344;6.620;2023-05-18T03:39:38;14.55;;;5.85;;
20170;SDS011;10245;51.344;6.620;2023-05-18T03:42:03;9.73;;;5.45;;
20170;SDS011;10245;51.344;6.620;2023-05-18T03:44:27;11.68;;;5.25;;
20170;SDS011;10245;51.344;6.620;2023-05-18T03:46:51;12.35;;;5.38;;
20170;SDS011;10245;51.344;6.620;2023-05-18T03:49:15;15.75;;;6.40;;
20170;SDS011;10245;51.344;6.620;2023-05-18T03:51:38;12.52;;;5.38;;
20170;SDS011;10245;51.344;6.620;2023-05-18T03:54:01;11.35;;;5.95;;
20170;SDS011;10245;51.344;6.620;2023-05-18T03:56:25;10.50;;;5.32;;
20170;SDS011;10245;51.344;6.620;2023-05-18T03:58:52;11.35;;;6.05;;
20170;SDS011;10245;51.344;6.620;2023-05-18T04:01:16;10.40;;;5.63;;
20170;SDS011;10245;51.344;6.620;2023-05-18T04:03:40;14.65;;;5.95;;
20170;SDS011;10245;51.344;6.620;2023-05-18T04:06:04;11.75;;;6.28;;
20170;SDS011;10245;51.344;6.620;2023-05-18T04:08:30;11.45;;;5.38;;
20170;SDS011;10245;51.344;6.620;2023-05-18T04:10:54;10.52;;;4.95;;
20170;SDS011;10245;51.344;6.620;2023-05-18T04:13:18;18.20;;;6.15;;
20170;SDS011;10245;51.344;6.620;2023-05-18T04:15:42;16.95;;;6.15;;
20170;SDS011;10245;51.344;6.620;2023-05-18T04:18:06;15.68;;;6.25;;
20170;SDS011;10245;51.344;6.620;2023-05-18T04:20:30;13.38;;;5.97;;
20170;SDS011;10245;51.344;6.620;2023-05-18T04:22:54;10.18;;;5.75;;
20170;SDS011;10245;51.344;6.620;2023-05-18T04:25:18;9.35;;;5.88;;
20170;SDS011;10245;51.344;6.620;2023-05-18T04:27:42;12.15;;;5.95;;
20170;SDS011;10245;51.344;6.620;2023-05-18T04:30:07;16.23;;;5.32;;
20170;SDS011;10245;51.344;6.620;2023-05-18T04:32:35;17.33;;;6.20;;
20170;SDS011;10245;51.344;6.620;2023-05-18T04:34:59;11.20;;;6.13;;
20170;SDS011;10245;51.344;6.620;2023-05-18T04:37:24;13.52;;;6.03;;
20170;SDS011;10245;51.344;6.620;2023-05-18T04:39:48;13.23;;;6.03;;
20170;SDS011;10245;51.344;6.620;2023-05-18T04:42:12;14.23;;;5.72;;
20170;SDS011;10245;51.344;6.620;2023-05-18T04:44:39;12.95;;;6.03;;
20170;SDS011;10245;51.344;6.620;2023-05-18T04:47:02;11.00;;;6.07;;
20170;SDS011;10245;51.344;6.620;2023-05-18T04:49:31;13.32;;;6.47;;
20170;SDS011;10245;51.344;6.620;2023-05-18T04:51:54;10.00;;;5.70;;
20170;SDS011;10245;51.344;6.620;2023-05-18T04:54:20;11.02;;;5.97;;
20170;SDS011;10245;51.344;6.620;2023-05-18T04:56:46;11.48;;;6.13;;
20170;SDS011;10245;51.344;6.620;2023-05-18T04:59:11;12.48;;;6.63;;
20170;SDS011;10245;51.344;6.620;2023-05-18T05:01:34;15.70;;;6.28;;
20170;SDS011;10245;51.344;6.620;2023-05-18T05:03:58;9.85;;;5.50;;
20170;SDS011;10245;51.344;6.620;2023-05-18T05:06:23;16.02;;;6.82;;
20170;SDS011;10245;51.344;6.620;2023-05-18T05:08:46;15.25;;;6.30;;
20170;SDS011;10245;51.344;6.620;2023-05-18T05:11:10;19.23;;;6.60;;
20170;SDS011;10245;51.344;6.620;2023-05-18T05:13:34;9.30;;;5.85;;
20170;SDS011;10245;51.344;6.620;2023-05-18T05:15:57;14.75;;;6.22;;
20170;SDS011;10245;51.344;6.620;2023-05-18T05:18:21;18.13;;;7.57;;
20170;SDS011;10245;51.344;6.620;2023-05-18T05:20:44;14.57;;;6.78;;
20170;SDS011;10245;51.344;6.620;2023-05-18T05:23:11;13.90;;;6.25;;
20170;SDS011;10245;51.344;6.620;2023-05-18T05:25:36;14.60;;;6.47;;
20170;SDS011;10245;51.344;6.620;2023-05-18T05:27:59;12.32;;;5.95;;
20170;SDS011;10245;51.344;6.620;2023-05-18T05:30:23;12.13;;;5.97;;
20170;SDS011;10245;51.344;6.620;2023-05-18T05:32:46;14.90;;;6.18;;
20170;SDS011;10245;51.344;6.620;2023-05-18T05:35:10;13.75;;;7.13;;
20170;SDS011;10245;51.344;6.620;2023-05-18T05:37:34;14.48;;;7.00;;
20170;SDS011;10245;51.344;6.620;2023-05-18T05:40:00;14.02;;;6.32;;
20170;SDS011;10245;51.344;6.620;2023-05-18T05:42:30;10.85;;;6.05;;
20170;SDS011;10245;51.344;6.620;2023-05-18T05:44:55;14.40;;;6.85;;
20170;SDS011;10245;51.344;6.620;2023-05-18T05:47:20;16.10;;;6.85;;
20170;SDS011;10245;51.344;6.620;2023-05-18T05:49:43;12.43;;;5.75;;
20170;SDS011;10245;51.344;6.620;2023-05-18T05:52:07;26.25;;;15.93;;
20170;SDS011;10245;51.344;6.620;2023-05-18T05:54:30;18.40;;;7.20;;
20170;SDS011;10245;51.344;6.620;2023-05-18T05:56:55;16.02;;;7.10;;
20170;SDS011;10245;51.344;6.620;2023-05-18T05:59:18;14.52;;;6.95;;
20170;SDS011;10245;51.344;6.620;2023-05-18T06:01:42;11.70;;;5.78;;
20170;SDS011;10245;51.344;6.620;2023-05-18T06:04:06;15.18;;;6.20;;
20170;SDS011;10245;51.344;6.620;2023-05-18T06:06:31;16.05;;;6.78;;
20170;SDS011;10245;51.344;6.620;2023-05-18T06:08:54;14.90;;;6.30;;
20170;SDS011;10245;51.344;6.620;2023-05-18T06:11:18;10.02;;;5.65;;
20170;SDS011;10245;51.344;6.620;2023-05-18T06:13:43;14.65;;;6.90;;
20170;SDS011;10245;51.344;6.620;2023-05-18T06:16:06;14.50;;;6.45;;
20170;SDS011;10245;51.344;6.620;2023-05-18T06:18:30;16.90;;;7.80;;
20170;SDS011;10245;51.344;6.620;2023-05-18T06:20:57;17.00;;;8.27;;
20170;SDS011;10245;51.344;6.620;2023-05-18T06:23:21;12.52;;;7.03;;
20170;SDS011;10245;51.344;6.620;2023-05-18T06:25:54;16.27;;;7.30;;
20170;SDS011;10245;51.344;6.620;2023-05-18T06:28:45;17.15;;;6.90;;
20170;SDS011;10245;51.344;6.620;2023-05-18T06:31:28;14.30;;;6.32;;
20170;SDS011;10245;51.344;6.620;2023-05-18T06:34:02;18.50;;;6.10;;
20170;SDS011;10245;51.344;6.620;2023-05-18T06:36:25;15.82;;;5.88;;
20170;SDS011;10245;51.344;6.620;2023-05-18T06:38:50;14.82;;;6.70;;
20170;SDS011;10245;51.344;6.620;2023-05-18T06:41:14;13.82;;;6.15;;
20170;SDS011;10245;51.344;6.620;2023-05-18T06:43:37;12.15;;;6.32;;
20170;SDS011;10245;51.344;6.620;2023-05-18T06:46:31;14.40;;;5.35;;
20170;SDS011;10245;51.344;6.620;2023-05-18T06:48:57;12.32;;;5.40;;
20170;SDS011;10245;51.344;6.620;2023-05-18T06:51:21;14.20;;;5.20;;
20170;SDS011;10245;51.344;6.620;2023-05-18T06:53:44;11.75;;;5.43;;
20170;SDS011;10245;51.344;6.620;2023-05-18T06:56:08;13.93;;;6.18;;
20170;SDS011;10245;51.344;6.620;2023-05-18T06:58:35;12.63;;;5.95;;
20170;SDS011;10245;51.344;6.620;2023-05-18T07:00:59;15.45;;;5.43;;
20170;SDS011;10245;51.344;6.620;2023-05-18T07:03:24;14.68;;;5.80;;
20170;SDS011;10245;51.344;6.620;2023-05-18T07:05:47;10.63;;;4.90;;
20170;SDS011;10245;51.344;6.620;2023-05-18T07:08:11;11.65;;;5.75;;
20170;SDS011;10245;51.344;6.620;2023-05-18T07:10:34;14.73;;;6.05;;
20170;SDS011;10245;51.344;6.620;2023-05-18T07:12:57;12.98;;;6.25;;
20170;SDS011;10245;51.344;6.620;2023-05-18T07:15:21;13.27;;;6.80;;
20170;SDS011;10245;51.344;6.620;2023-05-18T07:17:46;12.68;;;6.47;;
20170;SDS011;10245;51.344;6.620;2023-05-18T07:20:11;25.52;;;11.23;;
20170;SDS011;10245;51.344;6.620;2023-05-18T07:22:34;15.02;;;6.32;;
20170;SDS011;10245;51.344;6.620;2023-05-18T07:24:57;13.77;;;5.55;;
20170;SDS011;10245;51.344;6.620;2023-05-18T07:27:21;14.38;;;5.55;;
20170;SDS011;10245;51.344;6.620;2023-05-18T07:29:44;15.98;;;6.72;;
20170;SDS011;10245;51.344;6.620;2023-05-18T07:32:08;13.55;;;6.20;;
20170;SDS011;10245;51.344;6.620;2023-05-18T07:34:31;12.65;;;5.15;;
20170;SDS011;10245;51.344;6.620;2023-05-18T07:36:56;14.63;;;4.93;;
20170;SDS011;10245;51.344;6.620;2023-05-18T07:39:19;16.65;;;5.70;;
20170;SDS011;10245;51.344;6.620;2023-05-18T07:41:48;14.07;;;4.65;;
20170;SDS011;10245;51.344;6.620;2023-05-18T07:44:12;12.82;;;4.95;;
20170;SDS011;10245;51.344;6.620;2023-05-18T07:46:35;12.23;;;4.97;;
20170;SDS011;10245;51.344;6.620;2023-05-18T07:48:59;13.68;;;5.47;;
20170;SDS011;10245;51.344;6.620;2023-05-18T07:51:22;13.48;;;4.22;;
20170;SDS011;10245;51.344;6.620;2023-05-18T07:53:47;15.00;;;5.03;;
20170;SDS011;10245;51.344;6.620;2023-05-18T07:56:10;13.15;;;5.38;;
20170;SDS011;10245;51.344;6.620;2023-05-18T07:58:34;10.27;;;4.35;;
20170;SDS011;10245;51.344;6.620;2023-05-18T08:00:58;14.15;;;4.00;;
20170;SDS011;10245;51.344;6.620;2023-05-18T08:03:21;12.00;;;5.07;;
20170;SDS011;10245;51.344;6.620;2023-05-18T08:05:45;13.02;;;4.18;;
20170;SDS011;10245;51.344;6.620;2023-05-18T08:08:08;10.65;;;4.15;;
20170;SDS011;10245;51.344;6.620;2023-05-18T08:10:37;12.73;;;3.72;;
20170;SDS011;10245;51.344;6.620;2023-05-18T08:13:00;9.85;;;3.72;;
20170;SDS011;10245;51.344;6.620;2023-05-18T08:15:23;9.75;;;3.63;;
20170;SDS011;10245;51.344;6.620;2023-05-18T08:17:47;13.85;;;4.05;;
20170;SDS011;10245;51.344;6.620;2023-05-18T08:20:10;7.00;;;3.58;;
20170;SDS011;10245;51.344;6.620;2023-05-18T08:22:34;10.10;;;3.88;;
20170;SDS011;10245;51.344;6.620;2023-05-18T08:24:57;9.93;;;3.72;;
20170;SDS011;10245;51.344;6.620;2023-05-18T08:27:23;8.15;;;3.70;;
20170;SDS011;10245;51.344;6.620;2023-05-18T08:29:46;10.15;;;3.40;;
20170;SDS011;10245;51.344;6.620;2023-05-18T08:32:09;9.15;;;3.40;;
20170;SDS011;10245;51.344;6.620;2023-05-18T08:34:33;7.78;;;3.30;;
20170;SDS011;10245;51.344;6.620;2023-05-18T08:36:57;12.35;;;4.53;;
20170;SDS011;10245;51.344;6.620;2023-05-18T08:39:20;9.15;;;3.53;;
20170;SDS011;10245;51.344;6.620;2023-05-18T08:41:47;11.10;;;3.88;;
20170;SDS011;10245;51.344;6.620;2023-05-18T08:44:20;11.05;;;4.10;;
20170;SDS011;10245;51.344;6.620;2023-05-18T08:46:44;13.38;;;4.18;;
20170;SDS011;10245;51.344;6.620;2023-05-18T08:49:11;13.35;;;3.67;;
20170;SDS011;10245;51.344;6.620;2023-05-18T08:51:38;10.75;;;4.25;;
20170;SDS011;10245;51.344;6.620;2023-05-18T08:54:07;11.00;;;3.72;;
20170;SDS011;10245;51.344;6.620;2023-05-18T08:56:33;12.20;;;3.92;;
20170;SDS011;10245;51.344;6.620;2023-05-18T08:58:57;10.45;;;3.88;;
20170;SDS011;10245;51.344;6.620;2023-05-18T09:01:22;9.65;;;3.78;;
20170;SDS011;10245;51.344;6.620;2023-05-18T09:03:49;7.95;;;3.63;;
20170;SDS011;10245;51.344;6.620;2023-05-18T09:06:13;10.10;;;3.60;;
20170;SDS011;10245;51.344;6.620;2023-05-18T09:08:38;10.30;;;3.88;;
20170;SDS011;10245;51.344;6.620;2023-05-18T09:11:02;9.05;;;4.05;;
20170;SDS011;10245;51.344;6.620;2023-05-18T09:13:26;10.52;;;3.83;;
20170;SDS011;10245;51.344;6.620;2023-05-18T09:15:51;10.23;;;4.35;;
20170;SDS011;10245;51.344;6.620;2023-05-18T09:18:16;9.68;;;4.00;;
20170;SDS011;10245;51.344;6.620;2023-05-18T09:20:41;12.50;;;4.30;;
20170;SDS011;10245;51.344;6.620;2023-05-18T09:23:06;12.23;;;4.35;;
20170;SDS011;10245;51.344;6.620;2023-05-18T09:25:29;11.18;;;4.43;;
20170;SDS011;10245;51.344;6.620;2023-05-18T09:27:55;11.90;;;4.30;;
20170;SDS011;10245;51.344;6.620;2023-05-18T09:30:19;9.32;;;3.92;;
20170;SDS011;10245;51.344;6.620;2023-05-18T09:32:43;8.75;;;3.45;;
20170;SDS011;10245;51.344;6.620;2023-05-18T09:35:10;9.32;;;3.80;;
20170;SDS011;10245;51.344;6.620;2023-05-18T09:37:34;10.70;;;4.40;;
20170;SDS011;10245;51.344;6.620;2023-05-18T09:39:58;8.52;;;3.83;;
20170;SDS011;10245;51.344;6.620;2023-05-18T09:42:25;9.10;;;4.22;;
20170;SDS011;10245;51.344;6.620;2023-05-18T09:44:51;12.00;;;4.32;;
20170;SDS011;10245;51.344;6.620;2023-05-18T09:47:14;9.85;;;4.05;;
20170;SDS011;10245;51.344;6.620;2023-05-18T09:49:39;8.80;;;4.22;;
20170;SDS011;10245;51.344;6.620;2023-05-18T09:52:07;10.00;;;4.05;;
20170;SDS011;10245;51.344;6.620;2023-05-18T09:54:31;10.85;;;4.25;;
20170;SDS011;10245;51.344;6.620;2023-05-18T09:56:57;11.90;;;4.47;;
20170;SDS011;10245;51.344;6.620;2023-05-18T09:59:31;11.15;;;4.10;;
20170;SDS011;10245;51.344;6.620;2023-05-18T10:01:58;8.90;;;3.88;;
20170;SDS011;10245;51.344;6.620;2023-05-18T10:04:23;13.50;;;4.07;;
20170;SDS011;10245;51.344;6.620;2023-05-18T10:06:57;10.02;;;4.25;;
20170;SDS011;10245;51.344;6.620;2023-05-18T10:09:23;15.55;;;4.13;;
20170;SDS011;10245;51.344;6.620;2023-05-18T10:11:47;12.10;;;4.13;;
20170;SDS011;10245;51.344;6.620;2023-05-18T10:14:12;6.72;;;3.40;;
20170;SDS011;10245;51.344;6.620;2023-05-18T10:16:35;9.05;;;3.97;;
20170;SDS011;10245;51.344;6.620;2023-05-18T10:18:59;12.70;;;5.05;;
20170;SDS011;10245;51.344;6.620;2023-05-18T10:21:23;12.02;;;4.22;;
20170;SDS011;10245;51.344;6.620;2023-05-18T10:23:50;10.10;;;4.07;;
20170;SDS011;10245;51.344;6.620;2023-05-18T10:26:16;9.27;;;3.88;;
20170;SDS011;10245;51.344;6.620;2023-05-18T10:28:44;8.60;;;4.25;;
20170;SDS011;10245;51.344;6.620;2023-05-18T10:31:11;15.27;;;5.00;;
20170;SDS011;10245;51.344;6.620;2023-05-18T10:33:38;7.63;;;4.25;;
20170;SDS011;10245;51.344;6.620;2023-05-18T10:36:02;15.35;;;4.57;;
20170;SDS011;10245;51.344;6.620;2023-05-18T10:38:27;9.30;;;3.97;;
20170;SDS011;10245;51.344;6.620;2023-05-18T10:40:53;8.70;;;4.15;;
20170;SDS011;10245;51.344;6.620;2023-05-18T10:43:19;9.93;;;3.85;;
20170;SDS011;10245;51.344;6.620;2023-05-18T10:45:45;10.43;;;3.72;;
20170;SDS011;10245;51.344;6.620;2023-05-18T10:48:10;11.35;;;4.20;;
20170;SDS011;10245;51.344;6.620;2023-05-18T10:50:35;8.65;;;3.95;;
20170;SDS011;10245;51.344;6.620;2023-05-18T10:53:00;9.73;;;3.70;;
20170;SDS011;10245;51.344;6.620;2023-05-18T10:55:24;9.63;;;4.35;;
20170;SDS011;10245;51.344;6.620;2023-05-18T10:57:50;12.70;;;4.22;;
20170;SDS011;10245;51.344;6.620;2023-05-18T11:00:20;9.73;;;4.25;;
20170;SDS011;10245;51.344;6.620;2023-05-18T11:02:43;9.57;;;3.63;;
20170;SDS011;10245;51.344;6.620;2023-05-18T11:05:07;8.15;;;3.80;;
20170;SDS011;10245;51.344;6.620;2023-05-18T11:07:32;12.48;;;5.05;;
20170;SDS011;10245;51.344;6.620;2023-05-18T11:09:56;10.43;;;4.25;;
20170;SDS011;10245;51.344;6.620;2023-05-18T11:12:24;9.25;;;4.70;;
20170;SDS011;10245;51.344;6.620;2023-05-18T11:14:48;10.70;;;4.53;;
20170;SDS011;10245;51.344;6.620;2023-05-18T11:17:18;7.57;;;4.15;;
20170;SDS011;10245;51.344;6.620;2023-05-18T11:22:39;12.73;;;4.68;;
20170;SDS011;10245;51.344;6.620;2023-05-18T11:25:07;8.63;;;4.00;;
20170;SDS011;10245;51.344;6.620;2023-05-18T11:27:30;8.60;;;4.30;;
20170;SDS011;10245;51.344;6.620;2023-05-18T11:29:54;11.82;;;4.00;;
20170;SDS011;10245;51.344;6.620;2023-05-18T11:32:37;10.65;;;4.43;;
20170;SDS011;10245;51.344;6.620;2023-05-18T11:35:00;11.18;;;4.80;;
20170;SDS011;10245;51.344;6.620;2023-05-18T11:37:47;11.70;;;4.05;;
20170;SDS011;10245;51.344;6.620;2023-05-18T11:40:12;10.88;;;4.28;;
20170;SDS011;10245;51.344;6.620;2023-05-18T11:43:19;11.15;;;4.63;;
20170;SDS011;10245;51.344;6.620;2023-05-18T11:45:51;10.50;;;4.20;;
20170;SDS011;10245;51.344;6.620;2023-05-18T11:48:21;9.50;;;4.65;;
20170;SDS011;10245;51.344;6.620;2023-05-18T11:50:45;11.82;;;4.35;;
20170;SDS011;10245;51.344;6.620;2023-05-18T11:53:08;14.02;;;4.45;;
20170;SDS011;10245;51.344;6.620;2023-05-18T11:55:39;10.88;;;4.10;;
20170;SDS011;10245;51.344;6.620;2023-05-18T11:58:03;11.57;;;3.97;;
20170;SDS011;10245;51.344;6.620;2023-05-18T12:00:31;10.80;;;4.45;;
20170;SDS011;10245;51.344;6.620;2023-05-18T12:02:54;10.98;;;4.90;;
20170;SDS011;10245;51.344;6.620;2023-05-18T12:05:20;10.93;;;4.20;;
20170;SDS011;10245;51.344;6.620;2023-05-18T12:07:44;9.88;;;3.67;;
20170;SDS011;10245;51.344;6.620;2023-05-18T12:10:15;7.57;;;4.18;;
20170;SDS011;10245;51.344;6.620;2023-05-18T12:12:38;10.15;;;3.85;;
20170;SDS011;10245;51.344;6.620;2023-05-18T12:15:03;8.63;;;3.75;;
20170;SDS011;10245;51.344;6.620;2023-05-18T12:17:36;8.13;;;4.20;;
20170;SDS011;10245;51.344;6.620;2023-05-18T12:20:01;7.57;;;3.80;;
20170;SDS011;10245;51.344;6.620;2023-05-18T12:22:27;9.88;;;3.80;;
20170;SDS011;10245;51.344;6.620;2023-05-18T12:24:50;12.07;;;4.20;;
20170;SDS011;10245;51.344;6.620;2023-05-18T12:27:14;12.43;;;3.90;;
20170;SDS011;10245;51.344;6.620;2023-05-18T12:29:39;9.45;;;3.53;;
20170;SDS011;10245;51.344;6.620;2023-05-18T12:32:07;6.40;;;3.65;;
20170;SDS011;10245;51.344;6.620;2023-05-18T12:34:32;10.27;;;4.43;;
20170;SDS011;10245;51.344;6.620;2023-05-18T12:36:56;9.30;;;4.80;;
20170;SDS011;10245;51.344;6.620;2023-05-18T12:39:23;10.13;;;4.22;;
20170;SDS011;10245;51.344;6.620;2023-05-18T12:41:49;11.93;;;3.97;;
20170;SDS011;10245;51.344;6.620;2023-05-18T12:44:12;9.07;;;3.60;;
20170;SDS011;10245;51.344;6.620;2023-05-18T12:46:39;8.73;;;4.45;;
20170;SDS011;10245;51.344;6.620;2023-05-18T12:49:04;19.73;;;11.38;;
20170;SDS011;10245;51.344;6.620;2023-05-18T12:51:30;9.35;;;4.28;;
20170;SDS011;10245;51.344;6.620;2023-05-18T12:53:55;6.97;;;3.83;;
20170;SDS011;10245;51.344;6.620;2023-05-18T12:56:20;7.95;;;3.22;;
20170;SDS011;10245;51.344;6.620;2023-05-18T12:58:55;9.23;;;4.18;;
20170;SDS011;10245;51.344;6.620;2023-05-18T13:01:20;10.73;;;3.85;;
20170;SDS011;10245;51.344;6.620;2023-05-18T13:03:45;8.77;;;3.65;;
20170;SDS011;10245;51.344;6.620;2023-05-18T13:06:08;11.23;;;4.03;;
20170;SDS011;10245;51.344;6.620;2023-05-18T13:08:32;7.95;;;3.50;;
20170;SDS011;10245;51.344;6.620;2023-05-18T13:10:59;12.10;;;3.97;;
20170;SDS011;10245;51.344;6.620;2023-05-18T13:13:36;8.63;;;3.50;;
20170;SDS011;10245;51.344;6.620;2023-05-18T13:15:59;6.72;;;3.53;;
20170;SDS011;10245;51.344;6.620;2023-05-18T13:18:23;11.57;;;3.78;;
20170;SDS011;10245;51.344;6.620;2023-05-18T13:20:49;6.93;;;3.40;;
20170;SDS011;10245;51.344;6.620;2023-05-18T13:23:14;10.02;;;3.50;;
20170;SDS011;10245;51.344;6.620;2023-05-18T13:25:39;7.57;;;3.20;;
20170;SDS011;10245;51.344;6.620;2023-05-18T13:28:04;15.55;;;10.23;;
20170;SDS011;10245;51.344;6.620;2023-05-18T13:30:32;10.23;;;4.70;;
20170;SDS011;10245;51.344;6.620;2023-05-18T13:32:56;11.45;;;4.80;;
20170;SDS011;10245;51.344;6.620;2023-05-18T13:35:20;12.75;;;5.10;;
20170;SDS011;10245;51.344;6.620;2023-05-18T13:37:44;8.65;;;3.50;;
20170;SDS011;10245;51.344;6.620;2023-05-18T13:40:09;7.07;;;3.70;;
20170;SDS011;10245;51.344;6.620;2023-05-18T13:42:33;7.15;;;3.55;;
20170;SDS011;10245;51.344;6.620;2023-05-18T13:44:57;9.13;;;3.63;;
20170;SDS011;10245;51.344;6.620;2023-05-18T13:47:21;10.70;;;3.70;;
20170;SDS011;10245;51.344;6.620;2023-05-18T13:49:45;8.88;;;3.40;;
20170;SDS011;10245;51.344;6.620;2023-05-18T13:52:09;10.55;;;3.55;;
20170;SDS011;10245;51.344;6.620;2023-05-18T13:54:32;10.35;;;4.05;;
20170;SDS011;10245;51.344;6.620;2023-05-18T13:56:55;11.25;;;4.00;;
20170;SDS011;10245;51.344;6.620;2023-05-18T13:59:19;9.85;;;4.03;;
20170;SDS011;10245;51.344;6.620;2023-05-18T14:01:42;9.82;;;3.75;;
20170;SDS011;10245;51.344;6.620;2023-05-18T14:04:09;12.15;;;4.00;;
20170;SDS011;10245;51.344;6.620;2023-05-18T14:06:32;10.10;;;3.58;;
20170;SDS011;10245;51.344;6.620;2023-05-18T14:08:56;10.07;;;4.07;;
20170;SDS011;10245;51.344;6.620;2023-05-18T14:11:19;9.40;;;4.00;;
20170;SDS011;10245;51.344;6.620;2023-05-18T14:13:43;10.50;;;3.97;;
20170;SDS011;10245;51.344;6.620;2023-05-18T14:16:06;9.27;;;2.88;;
20170;SDS011;10245;51.344;6.620;2023-05-18T14:18:30;9.43;;;3.83;;
20170;SDS011;10245;51.344;6.620;2023-05-18T14:20:55;7.93;;;3.15;;
20170;SDS011;10245;51.344;6.620;2023-05-18T14:23:22;7.47;;;3.47;;
20170;SDS011;10245;51.344;6.620;2023-05-18T14:25:45;7.80;;;3.00;;
20170;SDS011;10245;51.344;6.620;2023-05-18T14:28:09;6.13;;;3.13;;
20170;SDS011;10245;51.344;6.620;2023-05-18T14:30:32;7.60;;;3.33;;
20170;SDS011;10245;51.344;6.620;2023-05-18T14:32:55;8.40;;;3.20;;
20170;SDS011;10245;51.344;6.620;2023-05-18T14:35:19;8.35;;;4.40;;